sensor_id;sensor_type;location;lat;lon;timestamp;temperature;humidity
5802;DHT22;2927;49.366;8.530;2023-03-04T00:00:42;1.90;99.90
5802;DHT22;2927;49.366;8.530;2023-03-04T00:03:10;1.90;99.90
5802;DHT22;2927;49.366;8.530;2023-03-04T00:05:38;1.80;99.90
5802;DHT22;2927;49.366;8.530;2023-03-04T00:08:04;1.80;99.90
5802;DHT22;2927;49.366;8.530;2023-03-04T00:10:29;1.80;1.00
5802;DHT22;2927;49.366;8.530;2023-03-04T00:12:55;1.70;1.00
5802;DHT22;2927;49.366;8.530;2023-03-04T00:15:20;1.70;1.00
5802;DHT22;2927;49.366;8.530;2023-03-04T00:17:46;1.70;1.00
5802;DHT22;2927;49.366;8.530;2023-03-04T00:20:12;1.70;1.00
5802;DHT22;2927;49.366;8.530;2023-03-04T00:22:38;1.60;1.00
5802;DHT22;2927;49.366;8.530;2023-03-04T00:25:03;1.60;1.00
5802;DHT22;2927;49.366;8.530;2023-03-04T00:27:29;1.60;1.00
5802;DHT22;2927;49.366;8.530;2023-03-04T00:29:55;1.50;1.00
5802;DHT22;2927;49.366;8.530;2023-03-04T00:32:21;1.50;1.00
5802;DHT22;2927;49.366;8.530;2023-03-04T00:34:47;1.50;1.00
5802;DHT22;2927;49.366;8.530;2023-03-04T00:37:12;1.50;1.00
5802;DHT22;2927;49.366;8.530;2023-03-04T00:39:38;1.50;1.00
5802;DHT22;2927;49.366;8.530;2023-03-04T00:42:03;1.40;1.00
5802;DHT22;2927;49.366;8.530;2023-03-04T00:44:29;1.40;1.00
5802;DHT22;2927;49.366;8.530;2023-03-04T00:46:54;1.40;1.00
5802;DHT22;2927;49.366;8.530;2023-03-04T00:49:20;1.40;1.00
5802;DHT22;2927;49.366;8.530;2023-03-04T00:51:46;1.30;1.00
5802;DHT22;2927;49.366;8.530;2023-03-04T00:54:11;1.30;1.00
5802;DHT22;2927;49.366;8.530;2023-03-04T00:56:37;1.20;1.00
5802;DHT22;2927;49.366;8.530;2023-03-04T00:59:02;1.20;1.00
5802;DHT22;2927;49.366;8.530;2023-03-04T01:01:28;1.20;1.00
5802;DHT22;2927;49.366;8.530;2023-03-04T01:03:54;1.10;1.00
5802;DHT22;2927;49.366;8.530;2023-03-04T01:06:19;1.10;1.00
5802;DHT22;2927;49.366;8.530;2023-03-04T01:08:45;1.10;1.00
5802;DHT22;2927;49.366;8.530;2023-03-04T01:11:10;1.10;1.00
5802;DHT22;2927;49.366;8.530;2023-03-04T01:13:36;1.00;1.00
5802;DHT22;2927;49.366;8.530;2023-03-04T01:16:02;1.00;1.00
5802;DHT22;2927;49.366;8.530;2023-03-04T01:18:28;1.00;1.00
5802;DHT22;2927;49.366;8.530;2023-03-04T01:20:54;1.00;1.00
5802;DHT22;2927;49.366;8.530;2023-03-04T01:23:21;0.90;1.00
5802;DHT22;2927;49.366;8.530;2023-03-04T01:25:46;0.90;8.30
5802;DHT22;2927;49.366;8.530;2023-03-04T01:28:12;0.80;22.00
5802;DHT22;2927;49.366;8.530;2023-03-04T01:30:37;0.80;43.40
5802;DHT22;2927;49.366;8.530;2023-03-04T01:33:03;0.80;50.80
5802;DHT22;2927;49.366;8.530;2023-03-04T01:35:29;0.70;49.70
5802;DHT22;2927;49.366;8.530;2023-03-04T01:37:54;0.70;66.60
5802;DHT22;2927;49.366;8.530;2023-03-04T01:40:20;0.70;56.30
5802;DHT22;2927;49.366;8.530;2023-03-04T01:42:45;0.70;90.00
5802;DHT22;2927;49.366;8.530;2023-03-04T01:45:13;0.60;85.00
5802;DHT22;2927;49.366;8.530;2023-03-04T01:47:40;0.60;91.50
5802;DHT22;2927;49.366;8.530;2023-03-04T01:50:18;0.60;98.20
5802;DHT22;2927;49.366;8.530;2023-03-04T01:52:44;0.60;99.90
5802;DHT22;2927;49.366;8.530;2023-03-04T01:55:15;0.60;99.90
5802;DHT22;2927;49.366;8.530;2023-03-04T01:57:42;0.50;99.90
5802;DHT22;2927;49.366;8.530;2023-03-04T02:00:29;0.40;99.90
5802;DHT22;2927;49.366;8.530;2023-03-04T02:03:03;0.50;99.90
5802;DHT22;2927;49.366;8.530;2023-03-04T02:05:32;0.40;99.90
5802;DHT22;2927;49.366;8.530;2023-03-04T02:07:58;0.40;99.90
5802;DHT22;2927;49.366;8.530;2023-03-04T02:10:26;0.40;99.90
5802;DHT22;2927;49.366;8.530;2023-03-04T02:12:52;0.40;99.90
5802;DHT22;2927;49.366;8.530;2023-03-04T02:15:18;0.40;99.90
5802;DHT22;2927;49.366;8.530;2023-03-04T02:17:44;0.40;99.90
5802;DHT22;2927;49.366;8.530;2023-03-04T02:20:17;0.30;99.90
5802;DHT22;2927;49.366;8.530;2023-03-04T02:23:16;0.30;99.90
5802;DHT22;2927;49.366;8.530;2023-03-04T02:25:46;0.30;99.90
5802;DHT22;2927;49.366;8.530;2023-03-04T02:28:13;0.30;99.90
5802;DHT22;2927;49.366;8.530;2023-03-04T02:30:39;0.30;99.90
5802;DHT22;2927;49.366;8.530;2023-03-04T02:33:04;0.30;99.90
5802;DHT22;2927;49.366;8.530;2023-03-04T02:35:31;0.20;99.90
5802;DHT22;2927;49.366;8.530;2023-03-04T02:37:56;0.20;99.90
5802;DHT22;2927;49.366;8.530;2023-03-04T02:40:25;0.20;99.90
5802;DHT22;2927;49.366;8.530;2023-03-04T02:42:51;0.20;99.90
5802;DHT22;2927;49.366;8.530;2023-03-04T02:45:40;0.10;99.90
5802;DHT22;2927;49.366;8.530;2023-03-04T02:48:07;0.10;99.90
5802;DHT22;2927;49.366;8.530;2023-03-04T02:50:35;0.10;99.90
5802;DHT22;2927;49.366;8.530;2023-03-04T02:53:02;0.10;99.90
5802;DHT22;2927;49.366;8.530;2023-03-04T02:55:28;0.00;99.90
5802;DHT22;2927;49.366;8.530;2023-03-04T02:57:53;0.00;99.90
5802;DHT22;2927;49.366;8.530;2023-03-04T03:00:19;0.10;99.90
5802;DHT22;2927;49.366;8.530;2023-03-04T03:02:45;0.10;99.90
5802;DHT22;2927;49.366;8.530;2023-03-04T03:05:11;0.00;99.90
5802;DHT22;2927;49.366;8.530;2023-03-04T03:07:37;0.00;99.90
5802;DHT22;2927;49.366;8.530;2023-03-04T03:10:03;0.00;99.90
5802;DHT22;2927;49.366;8.530;2023-03-04T03:12:29;0.00;99.90
5802;DHT22;2927;49.366;8.530;2023-03-04T03:14:54;-0.10;99.90
5802;DHT22;2927;49.366;8.530;2023-03-04T03:17:20;-0.10;99.90
5802;DHT22;2927;49.366;8.530;2023-03-04T03:19:45;-0.10;99.90
5802;DHT22;2927;49.366;8.530;2023-03-04T03:22:11;-0.10;99.90
5802;DHT22;2927;49.366;8.530;2023-03-04T03:24:36;-0.10;99.90
5802;DHT22;2927;49.366;8.530;2023-03-04T03:27:02;-0.10;99.90
5802;DHT22;2927;49.366;8.530;2023-03-04T03:29:27;-0.20;99.90
5802;DHT22;2927;49.366;8.530;2023-03-04T03:31:53;-0.20;99.90
5802;DHT22;2927;49.366;8.530;2023-03-04T03:34:18;-0.20;99.90
5802;DHT22;2927;49.366;8.530;2023-03-04T03:36:44;-0.20;99.90
5802;DHT22;2927;49.366;8.530;2023-03-04T03:39:09;-0.20;99.90
5802;DHT22;2927;49.366;8.530;2023-03-04T03:41:35;-0.30;99.90
5802;DHT22;2927;49.366;8.530;2023-03-04T03:44:01;-0.40;99.90
5802;DHT22;2927;49.366;8.530;2023-03-04T03:46:26;-0.40;99.90
5802;DHT22;2927;49.366;8.530;2023-03-04T03:48:52;-0.40;99.90
5802;DHT22;2927;49.366;8.530;2023-03-04T03:51:17;-0.40;99.90
5802;DHT22;2927;49.366;8.530;2023-03-04T03:53:43;-0.40;99.90
5802;DHT22;2927;49.366;8.530;2023-03-04T03:56:08;-0.50;99.90
5802;DHT22;2927;49.366;8.530;2023-03-04T03:58:34;-0.40;99.90
5802;DHT22;2927;49.366;8.530;2023-03-04T04:00:59;-0.40;99.90
5802;DHT22;2927;49.366;8.530;2023-03-04T04:03:25;-0.40;99.90
5802;DHT22;2927;49.366;8.530;2023-03-04T04:05:51;-0.50;99.90
5802;DHT22;2927;49.366;8.530;2023-03-04T04:08:17;-0.50;99.90
5802;DHT22;2927;49.366;8.530;2023-03-04T04:10:43;-0.40;99.90
5802;DHT22;2927;49.366;8.530;2023-03-04T04:13:09;-0.40;99.90
5802;DHT22;2927;49.366;8.530;2023-03-04T04:15:35;-0.40;99.90
5802;DHT22;2927;49.366;8.530;2023-03-04T04:18:03;-0.40;99.90
5802;DHT22;2927;49.366;8.530;2023-03-04T04:20:29;-0.40;99.90
5802;DHT22;2927;49.366;8.530;2023-03-04T04:22:54;-0.50;99.90
5802;DHT22;2927;49.366;8.530;2023-03-04T04:25:20;-0.50;99.90
5802;DHT22;2927;49.366;8.530;2023-03-04T04:27:45;-0.50;99.90
5802;DHT22;2927;49.366;8.530;2023-03-04T04:30:11;-0.50;99.90
5802;DHT22;2927;49.366;8.530;2023-03-04T04:32:36;-0.50;99.90
5802;DHT22;2927;49.366;8.530;2023-03-04T04:35:02;-0.50;99.90
5802;DHT22;2927;49.366;8.530;2023-03-04T04:37:28;-0.50;99.90
5802;DHT22;2927;49.366;8.530;2023-03-04T04:39:53;-0.60;99.90
5802;DHT22;2927;49.366;8.530;2023-03-04T04:42:20;-0.60;99.90
5802;DHT22;2927;49.366;8.530;2023-03-04T04:44:46;-0.50;99.90
5802;DHT22;2927;49.366;8.530;2023-03-04T04:47:12;-0.50;99.90
5802;DHT22;2927;49.366;8.530;2023-03-04T04:49:37;-0.50;99.90
5802;DHT22;2927;49.366;8.530;2023-03-04T04:52:03;-0.50;99.90
5802;DHT22;2927;49.366;8.530;2023-03-04T04:54:28;-0.50;99.90
5802;DHT22;2927;49.366;8.530;2023-03-04T04:56:54;-0.60;99.90
5802;DHT22;2927;49.366;8.530;2023-03-04T04:59:20;-0.60;99.90
5802;DHT22;2927;49.366;8.530;2023-03-04T05:01:45;-0.60;99.90
5802;DHT22;2927;49.366;8.530;2023-03-04T05:04:11;-0.60;99.90
5802;DHT22;2927;49.366;8.530;2023-03-04T05:06:36;-0.70;99.90
5802;DHT22;2927;49.366;8.530;2023-03-04T05:09:02;-0.70;99.90
5802;DHT22;2927;49.366;8.530;2023-03-04T05:11:28;-0.70;99.90
5802;DHT22;2927;49.366;8.530;2023-03-04T05:13:54;-0.70;99.90
5802;DHT22;2927;49.366;8.530;2023-03-04T05:16:20;-0.80;99.90
5802;DHT22;2927;49.366;8.530;2023-03-04T05:18:46;-0.80;99.90
5802;DHT22;2927;49.366;8.530;2023-03-04T05:21:11;-0.80;99.90
5802;DHT22;2927;49.366;8.530;2023-03-04T05:23:39;-0.80;99.90
5802;DHT22;2927;49.366;8.530;2023-03-04T05:26:06;-0.70;99.90
5802;DHT22;2927;49.366;8.530;2023-03-04T05:28:32;-0.70;99.90
5802;DHT22;2927;49.366;8.530;2023-03-04T05:30:58;-0.70;99.90
5802;DHT22;2927;49.366;8.530;2023-03-04T05:33:24;-0.70;99.90
5802;DHT22;2927;49.366;8.530;2023-03-04T05:35:49;-0.60;99.90
5802;DHT22;2927;49.366;8.530;2023-03-04T05:38:18;-0.60;99.90
5802;DHT22;2927;49.366;8.530;2023-03-04T05:40:44;-0.50;99.90
5802;DHT22;2927;49.366;8.530;2023-03-04T05:43:10;-0.40;99.90
5802;DHT22;2927;49.366;8.530;2023-03-04T05:45:36;-0.40;99.90
5802;DHT22;2927;49.366;8.530;2023-03-04T05:48:02;-0.30;99.90
5802;DHT22;2927;49.366;8.530;2023-03-04T05:50:29;-0.20;99.90
5802;DHT22;2927;49.366;8.530;2023-03-04T05:52:54;-0.20;99.90
5802;DHT22;2927;49.366;8.530;2023-03-04T05:55:20;-0.10;99.90
5802;DHT22;2927;49.366;8.530;2023-03-04T05:57:47;-0.10;99.90
5802;DHT22;2927;49.366;8.530;2023-03-04T06:00:14;0.00;99.90
5802;DHT22;2927;49.366;8.530;2023-03-04T06:02:42;0.00;99.90
5802;DHT22;2927;49.366;8.530;2023-03-04T06:05:09;0.00;99.90
5802;DHT22;2927;49.366;8.530;2023-03-04T06:07:35;0.10;99.90
5802;DHT22;2927;49.366;8.530;2023-03-04T06:10:00;0.10;99.90
5802;DHT22;2927;49.366;8.530;2023-03-04T06:12:26;0.10;99.90
5802;DHT22;2927;49.366;8.530;2023-03-04T06:14:53;0.10;99.90
5802;DHT22;2927;49.366;8.530;2023-03-04T06:17:18;0.10;99.90
5802;DHT22;2927;49.366;8.530;2023-03-04T06:19:44;0.10;99.90
5802;DHT22;2927;49.366;8.530;2023-03-04T06:22:10;0.20;99.90
5802;DHT22;2927;49.366;8.530;2023-03-04T06:24:36;0.30;99.90
5802;DHT22;2927;49.366;8.530;2023-03-04T06:27:02;0.30;99.90
5802;DHT22;2927;49.366;8.530;2023-03-04T06:29:28;0.40;99.90
5802;DHT22;2927;49.366;8.530;2023-03-04T06:31:53;0.40;99.90
5802;DHT22;2927;49.366;8.530;2023-03-04T06:34:19;0.50;99.90
5802;DHT22;2927;49.366;8.530;2023-03-04T06:36:44;0.50;99.90
5802;DHT22;2927;49.366;8.530;2023-03-04T06:39:10;0.50;99.90
5802;DHT22;2927;49.366;8.530;2023-03-04T06:41:35;0.50;84.00
5802;DHT22;2927;49.366;8.530;2023-03-04T06:44:01;0.40;62.00
5802;DHT22;2927;49.366;8.530;2023-03-04T06:46:27;0.40;99.90
5802;DHT22;2927;49.366;8.530;2023-03-04T06:48:52;0.50;99.90
5802;DHT22;2927;49.366;8.530;2023-03-04T06:51:18;0.60;99.10
5802;DHT22;2927;49.366;8.530;2023-03-04T06:53:44;0.60;54.30
5802;DHT22;2927;49.366;8.530;2023-03-04T06:56:11;0.70;7.70
5802;DHT22;2927;49.366;8.530;2023-03-04T06:58:37;0.70;2.80
5802;DHT22;2927;49.366;8.530;2023-03-04T07:01:11;0.80;1.00
5802;DHT22;2927;49.366;8.530;2023-03-04T07:03:36;0.80;1.00
5802;DHT22;2927;49.366;8.530;2023-03-04T07:06:02;0.90;1.00
5802;DHT22;2927;49.366;8.530;2023-03-04T07:08:27;1.00;1.00
5802;DHT22;2927;49.366;8.530;2023-03-04T07:10:53;1.00;1.00
5802;DHT22;2927;49.366;8.530;2023-03-04T07:13:18;1.00;1.00
5802;DHT22;2927;49.366;8.530;2023-03-04T07:15:44;1.00;1.00
5802;DHT22;2927;49.366;8.530;2023-03-04T07:18:09;1.10;1.00
5802;DHT22;2927;49.366;8.530;2023-03-04T07:20:35;1.20;1.00
5802;DHT22;2927;49.366;8.530;2023-03-04T07:23:01;1.30;1.00
5802;DHT22;2927;49.366;8.530;2023-03-04T07:25:26;1.30;1.00
5802;DHT22;2927;49.366;8.530;2023-03-04T07:27:52;1.30;1.00
5802;DHT22;2927;49.366;8.530;2023-03-04T07:30:18;1.30;1.00
5802;DHT22;2927;49.366;8.530;2023-03-04T07:32:43;1.30;1.00
5802;DHT22;2927;49.366;8.530;2023-03-04T07:35:09;1.30;1.00
5802;DHT22;2927;49.366;8.530;2023-03-04T07:37:34;1.40;1.00
5802;DHT22;2927;49.366;8.530;2023-03-04T07:40:00;1.50;1.00
5802;DHT22;2927;49.366;8.530;2023-03-04T07:42:26;1.40;1.00
5802;DHT22;2927;49.366;8.530;2023-03-04T07:44:51;1.40;1.00
5802;DHT22;2927;49.366;8.530;2023-03-04T07:47:17;1.50;1.00
5802;DHT22;2927;49.366;8.530;2023-03-04T07:49:43;1.60;1.00
5802;DHT22;2927;49.366;8.530;2023-03-04T07:52:09;1.60;1.00
5802;DHT22;2927;49.366;8.530;2023-03-04T07:54:35;1.60;1.00
5802;DHT22;2927;49.366;8.530;2023-03-04T07:57:00;1.60;1.00
5802;DHT22;2927;49.366;8.530;2023-03-04T07:59:26;1.80;1.00
5802;DHT22;2927;49.366;8.530;2023-03-04T08:01:51;1.80;1.00
5802;DHT22;2927;49.366;8.530;2023-03-04T08:04:17;1.90;99.90
5802;DHT22;2927;49.366;8.530;2023-03-04T08:06:42;2.10;99.90
5802;DHT22;2927;49.366;8.530;2023-03-04T08:09:10;2.10;1.00
5802;DHT22;2927;49.366;8.530;2023-03-04T08:11:37;2.10;1.00
5802;DHT22;2927;49.366;8.530;2023-03-04T08:14:03;2.10;1.00
5802;DHT22;2927;49.366;8.530;2023-03-04T08:16:29;2.20;1.00
5802;DHT22;2927;49.366;8.530;2023-03-04T08:18:57;2.20;1.00
5802;DHT22;2927;49.366;8.530;2023-03-04T08:21:24;2.20;28.20
5802;DHT22;2927;49.366;8.530;2023-03-04T08:23:51;2.20;1.00
5802;DHT22;2927;49.366;8.530;2023-03-04T08:26:20;2.20;1.00
5802;DHT22;2927;49.366;8.530;2023-03-04T08:28:46;2.20;49.10
5802;DHT22;2927;49.366;8.530;2023-03-04T08:31:13;2.20;1.00
5802;DHT22;2927;49.366;8.530;2023-03-04T08:33:39;2.20;1.00
5802;DHT22;2927;49.366;8.530;2023-03-04T08:36:05;2.10;99.90
5802;DHT22;2927;49.366;8.530;2023-03-04T08:38:30;2.10;1.00
5802;DHT22;2927;49.366;8.530;2023-03-04T08:40:56;2.20;1.00
5802;DHT22;2927;49.366;8.530;2023-03-04T08:43:23;2.30;1.00
5802;DHT22;2927;49.366;8.530;2023-03-04T08:45:49;2.30;94.90
5802;DHT22;2927;49.366;8.530;2023-03-04T08:48:16;2.40;1.00
5802;DHT22;2927;49.366;8.530;2023-03-04T08:50:43;2.40;1.00
5802;DHT22;2927;49.366;8.530;2023-03-04T08:53:10;2.40;99.90
5802;DHT22;2927;49.366;8.530;2023-03-04T08:55:37;2.50;99.90
5802;DHT22;2927;49.366;8.530;2023-03-04T08:58:04;2.60;99.90
5802;DHT22;2927;49.366;8.530;2023-03-04T09:00:29;2.70;1.00
5802;DHT22;2927;49.366;8.530;2023-03-04T09:02:55;2.60;1.00
5802;DHT22;2927;49.366;8.530;2023-03-04T09:05:20;2.70;99.90
5802;DHT22;2927;49.366;8.530;2023-03-04T09:07:46;2.80;1.00
5802;DHT22;2927;49.366;8.530;2023-03-04T09:10:12;2.90;85.40
5802;DHT22;2927;49.366;8.530;2023-03-04T09:12:37;3.00;3.40
5802;DHT22;2927;49.366;8.530;2023-03-04T09:15:03;3.00;99.90
5802;DHT22;2927;49.366;8.530;2023-03-04T09:17:30;3.00;99.90
5802;DHT22;2927;49.366;8.530;2023-03-04T09:19:56;3.10;99.90
5802;DHT22;2927;49.366;8.530;2023-03-04T09:22:21;3.20;99.90
5802;DHT22;2927;49.366;8.530;2023-03-04T09:24:47;3.20;1.00
5802;DHT22;2927;49.366;8.530;2023-03-04T09:27:12;3.10;1.00
5802;DHT22;2927;49.366;8.530;2023-03-04T09:29:38;3.10;1.00
5802;DHT22;2927;49.366;8.530;2023-03-04T09:32:04;3.10;1.00
5802;DHT22;2927;49.366;8.530;2023-03-04T09:34:29;3.30;1.00
5802;DHT22;2927;49.366;8.530;2023-03-04T09:36:55;3.30;1.00
5802;DHT22;2927;49.366;8.530;2023-03-04T09:39:20;3.40;99.90
5802;DHT22;2927;49.366;8.530;2023-03-04T09:41:51;3.50;1.00
5802;DHT22;2927;49.366;8.530;2023-03-04T09:44:27;3.50;1.00
5802;DHT22;2927;49.366;8.530;2023-03-04T09:46:56;3.50;11.70
5802;DHT22;2927;49.366;8.530;2023-03-04T09:49:23;3.60;1.00
5802;DHT22;2927;49.366;8.530;2023-03-04T09:52:20;3.50;1.00
5802;DHT22;2927;49.366;8.530;2023-03-04T10:00:37;3.70;99.90
5802;DHT22;2927;49.366;8.530;2023-03-04T10:06:01;3.70;99.90
5802;DHT22;2927;49.366;8.530;2023-03-04T10:11:13;3.70;1.00
5802;DHT22;2927;49.366;8.530;2023-03-04T10:13:53;3.80;1.00
5802;DHT22;2927;49.366;8.530;2023-03-04T10:16:25;3.90;1.00
5802;DHT22;2927;49.366;8.530;2023-03-04T10:19:14;4.00;1.00
5802;DHT22;2927;49.366;8.530;2023-03-04T10:21:48;4.00;1.00
5802;DHT22;2927;49.366;8.530;2023-03-04T10:24:19;3.90;1.00
5802;DHT22;2927;49.366;8.530;2023-03-04T10:26:53;4.00;1.00
5802;DHT22;2927;49.366;8.530;2023-03-04T10:29:21;4.20;1.00
5802;DHT22;2927;49.366;8.530;2023-03-04T10:31:48;4.20;1.00
5802;DHT22;2927;49.366;8.530;2023-03-04T10:34:15;4.30;1.00
5802;DHT22;2927;49.366;8.530;2023-03-04T10:36:59;4.40;1.00
5802;DHT22;2927;49.366;8.530;2023-03-04T10:39:32;4.40;1.00
5802;DHT22;2927;49.366;8.530;2023-03-04T10:42:44;4.40;1.00
5802;DHT22;2927;49.366;8.530;2023-03-04T10:44:59;4.50;1.00
5802;DHT22;2927;49.366;8.530;2023-03-04T10:47:30;4.60;99.90
5802;DHT22;2927;49.366;8.530;2023-03-04T10:50:02;4.60;1.00
5802;DHT22;2927;49.366;8.530;2023-03-04T10:52:37;4.60;1.00
5802;DHT22;2927;49.366;8.530;2023-03-04T10:55:05;4.70;99.90
5802;DHT22;2927;49.366;8.530;2023-03-04T10:57:40;4.80;99.90
5802;DHT22;2927;49.366;8.530;2023-03-04T11:00:27;4.90;1.00
5802;DHT22;2927;49.366;8.530;2023-03-04T11:05:50;4.80;1.00
5802;DHT22;2927;49.366;8.530;2023-03-04T11:08:20;4.90;1.00
5802;DHT22;2927;49.366;8.530;2023-03-04T11:10:47;5.00;1.00
5802;DHT22;2927;49.366;8.530;2023-03-04T11:13:20;5.00;1.00
5802;DHT22;2927;49.366;8.530;2023-03-04T11:16:01;5.20;1.00
5802;DHT22;2927;49.366;8.530;2023-03-04T11:18:29;5.40;1.00
5802;DHT22;2927;49.366;8.530;2023-03-04T11:20:56;5.30;1.00
5802;DHT22;2927;49.366;8.530;2023-03-04T11:26:20;5.20;99.90
5802;DHT22;2927;49.366;8.530;2023-03-04T11:31:23;5.10;99.90
5802;DHT22;2927;49.366;8.530;2023-03-04T11:34:07;5.00;1.00
5802;DHT22;2927;49.366;8.530;2023-03-04T11:36:55;5.10;1.00
5802;DHT22;2927;49.366;8.530;2023-03-04T11:39:45;5.20;99.90
5802;DHT22;2927;49.366;8.530;2023-03-04T11:42:39;5.10;99.90
5802;DHT22;2927;49.366;8.530;2023-03-04T11:45:14;5.20;99.90
5802;DHT22;2927;49.366;8.530;2023-03-04T11:53:03;5.30;1.00
5802;DHT22;2927;49.366;8.530;2023-03-04T12:01:09;5.60;1.00
5802;DHT22;2927;49.366;8.530;2023-03-04T12:04:01;5.60;1.00
5802;DHT22;2927;49.366;8.530;2023-03-04T12:07:15;5.60;1.00
5802;DHT22;2927;49.366;8.530;2023-03-04T12:13:03;5.70;99.90
5802;DHT22;2927;49.366;8.530;2023-03-04T12:21:08;5.80;1.00
5802;DHT22;2927;49.366;8.530;2023-03-04T12:29:28;5.30;1.00
5802;DHT22;2927;49.366;8.530;2023-03-04T12:37:42;5.50;1.00
5802;DHT22;2927;49.366;8.530;2023-03-04T12:43:15;5.80;1.00
5802;DHT22;2927;49.366;8.530;2023-03-04T12:46:09;5.80;99.90
5802;DHT22;2927;49.366;8.530;2023-03-04T12:48:40;5.60;1.00
5802;DHT22;2927;49.366;8.530;2023-03-04T12:51:15;5.50;1.00
5802;DHT22;2927;49.366;8.530;2023-03-04T12:56:45;5.50;1.00
5802;DHT22;2927;49.366;8.530;2023-03-04T12:59:17;5.50;1.00
5802;DHT22;2927;49.366;8.530;2023-03-04T13:02:00;5.50;1.00
5802;DHT22;2927;49.366;8.530;2023-03-04T13:04:47;5.50;1.00
5802;DHT22;2927;49.366;8.530;2023-03-04T13:09:48;5.60;1.00
5802;DHT22;2927;49.366;8.530;2023-03-04T13:12:20;5.60;1.00
5802;DHT22;2927;49.366;8.530;2023-03-04T13:17:41;5.70;1.00
5802;DHT22;2927;49.366;8.530;2023-03-04T13:22:56;5.90;1.00
5802;DHT22;2927;49.366;8.530;2023-03-04T13:25:44;6.00;1.00
5802;DHT22;2927;49.366;8.530;2023-03-04T13:35:54;5.80;99.90
5802;DHT22;2927;49.366;8.530;2023-03-04T13:41:23;5.90;99.90
5802;DHT22;2927;49.366;8.530;2023-03-04T13:56:35;5.70;1.00
5802;DHT22;2927;49.366;8.530;2023-03-04T14:01:34;5.70;1.00
5802;DHT22;2927;49.366;8.530;2023-03-04T14:06:50;5.70;1.00
5802;DHT22;2927;49.366;8.530;2023-03-04T14:09:22;5.60;1.00
5802;DHT22;2927;49.366;8.530;2023-03-04T14:11:49;5.60;1.00
5802;DHT22;2927;49.366;8.530;2023-03-04T14:14:19;5.60;1.00
5802;DHT22;2927;49.366;8.530;2023-03-04T14:16:50;5.50;1.00
5802;DHT22;2927;49.366;8.530;2023-03-04T14:19:31;5.40;1.00
5802;DHT22;2927;49.366;8.530;2023-03-04T14:21:59;5.30;1.00
5802;DHT22;2927;49.366;8.530;2023-03-04T14:24:24;5.30;1.00
5802;DHT22;2927;49.366;8.530;2023-03-04T14:27:08;5.30;1.00
5802;DHT22;2927;49.366;8.530;2023-03-04T14:29:34;5.40;1.00
5802;DHT22;2927;49.366;8.530;2023-03-04T14:32:00;5.50;1.00
5802;DHT22;2927;49.366;8.530;2023-03-04T14:34:32;5.40;1.00
5802;DHT22;2927;49.366;8.530;2023-03-04T14:36:59;5.40;1.00
5802;DHT22;2927;49.366;8.530;2023-03-04T14:39:29;5.40;1.00
5802;DHT22;2927;49.366;8.530;2023-03-04T14:41:57;5.50;1.00
5802;DHT22;2927;49.366;8.530;2023-03-04T14:47:06;5.40;1.00
5802;DHT22;2927;49.366;8.530;2023-03-04T14:49:34;5.30;1.00
5802;DHT22;2927;49.366;8.530;2023-03-04T14:52:00;5.30;1.00
5802;DHT22;2927;49.366;8.530;2023-03-04T14:54:36;5.40;1.00
5802;DHT22;2927;49.366;8.530;2023-03-04T14:57:21;5.40;1.00
5802;DHT22;2927;49.366;8.530;2023-03-04T14:59:48;5.40;1.00
5802;DHT22;2927;49.366;8.530;2023-03-04T15:04:48;5.40;1.00
5802;DHT22;2927;49.366;8.530;2023-03-04T15:07:20;5.60;1.00
5802;DHT22;2927;49.366;8.530;2023-03-04T15:09:51;5.60;1.00
5802;DHT22;2927;49.366;8.530;2023-03-04T15:12:23;5.60;1.00
5802;DHT22;2927;49.366;8.530;2023-03-04T15:15:02;5.60;1.00
5802;DHT22;2927;49.366;8.530;2023-03-04T15:17:34;5.60;1.00
5802;DHT22;2927;49.366;8.530;2023-03-04T15:25:15;5.60;1.00
5802;DHT22;2927;49.366;8.530;2023-03-04T15:27:46;5.50;1.00
5802;DHT22;2927;49.366;8.530;2023-03-04T15:30:18;5.50;1.00
5802;DHT22;2927;49.366;8.530;2023-03-04T15:32:44;5.50;1.00
5802;DHT22;2927;49.366;8.530;2023-03-04T15:35:14;5.60;1.00
5802;DHT22;2927;49.366;8.530;2023-03-04T15:37:41;5.60;1.00
5802;DHT22;2927;49.366;8.530;2023-03-04T15:40:22;5.60;1.00
5802;DHT22;2927;49.366;8.530;2023-03-04T15:42:48;5.60;1.00
5802;DHT22;2927;49.366;8.530;2023-03-04T15:45:33;5.60;1.00
5802;DHT22;2927;49.366;8.530;2023-03-04T15:48:07;5.50;1.00
5802;DHT22;2927;49.366;8.530;2023-03-04T15:50:35;5.40;1.00
5802;DHT22;2927;49.366;8.530;2023-03-04T15:53:04;5.50;1.00
5802;DHT22;2927;49.366;8.530;2023-03-04T15:55:31;5.60;1.00
5802;DHT22;2927;49.366;8.530;2023-03-04T15:57:58;5.70;1.00
5802;DHT22;2927;49.366;8.530;2023-03-04T16:00:25;5.60;1.00
5802;DHT22;2927;49.366;8.530;2023-03-04T16:02:51;5.60;1.00
5802;DHT22;2927;49.366;8.530;2023-03-04T16:05:16;5.50;1.00
5802;DHT22;2927;49.366;8.530;2023-03-04T16:07:47;5.40;1.00
5802;DHT22;2927;49.366;8.530;2023-03-04T16:10:33;5.30;1.00
5802;DHT22;2927;49.366;8.530;2023-03-04T16:12:58;5.30;99.90
5802;DHT22;2927;49.366;8.530;2023-03-04T16:15:26;5.30;99.90
5802;DHT22;2927;49.366;8.530;2023-03-04T16:17:53;5.30;99.90
5802;DHT22;2927;49.366;8.530;2023-03-04T16:20:21;5.30;99.90
5802;DHT22;2927;49.366;8.530;2023-03-04T16:22:52;5.20;99.90
5802;DHT22;2927;49.366;8.530;2023-03-04T16:25:19;5.20;99.90
5802;DHT22;2927;49.366;8.530;2023-03-04T16:27:45;5.10;99.90
5802;DHT22;2927;49.366;8.530;2023-03-04T16:30:22;5.10;1.00
5802;DHT22;2927;49.366;8.530;2023-03-04T16:32:48;5.10;1.00
5802;DHT22;2927;49.366;8.530;2023-03-04T16:35:15;5.00;1.00
5802;DHT22;2927;49.366;8.530;2023-03-04T16:37:41;5.10;1.00
5802;DHT22;2927;49.366;8.530;2023-03-04T16:40:14;5.00;1.00
5802;DHT22;2927;49.366;8.530;2023-03-04T16:42:40;5.10;1.00
5802;DHT22;2927;49.366;8.530;2023-03-04T16:45:17;5.00;1.00
5802;DHT22;2927;49.366;8.530;2023-03-04T16:47:43;5.10;1.00
5802;DHT22;2927;49.366;8.530;2023-03-04T16:50:12;5.00;1.00
5802;DHT22;2927;49.366;8.530;2023-03-04T16:52:37;5.10;1.00
5802;DHT22;2927;49.366;8.530;2023-03-04T16:55:03;5.10;1.00
5802;DHT22;2927;49.366;8.530;2023-03-04T16:57:29;5.10;1.00
5802;DHT22;2927;49.366;8.530;2023-03-04T16:59:56;5.10;1.00
5802;DHT22;2927;49.366;8.530;2023-03-04T17:02:22;5.00;1.00
5802;DHT22;2927;49.366;8.530;2023-03-04T17:04:51;5.00;15.00
5802;DHT22;2927;49.366;8.530;2023-03-04T17:07:17;5.00;99.90
5802;DHT22;2927;49.366;8.530;2023-03-04T17:09:43;5.00;99.90
5802;DHT22;2927;49.366;8.530;2023-03-04T17:12:11;4.90;99.90
5802;DHT22;2927;49.366;8.530;2023-03-04T17:14:37;4.90;99.90
5802;DHT22;2927;49.366;8.530;2023-03-04T17:17:04;4.90;99.90
5802;DHT22;2927;49.366;8.530;2023-03-04T17:19:30;4.90;99.90
5802;DHT22;2927;49.366;8.530;2023-03-04T17:21:57;4.90;99.90
5802;DHT22;2927;49.366;8.530;2023-03-04T17:24:23;4.90;99.90
5802;DHT22;2927;49.366;8.530;2023-03-04T17:26:48;4.80;99.90
5802;DHT22;2927;49.366;8.530;2023-03-04T17:29:14;4.90;99.90
5802;DHT22;2927;49.366;8.530;2023-03-04T17:31:40;4.90;99.90
5802;DHT22;2927;49.366;8.530;2023-03-04T17:34:05;4.80;99.90
5802;DHT22;2927;49.366;8.530;2023-03-04T17:36:31;4.80;99.90
5802;DHT22;2927;49.366;8.530;2023-03-04T17:38:58;4.80;99.90
5802;DHT22;2927;49.366;8.530;2023-03-04T17:41:23;4.80;99.90
5802;DHT22;2927;49.366;8.530;2023-03-04T17:43:51;4.80;99.90
5802;DHT22;2927;49.366;8.530;2023-03-04T17:46:20;4.80;99.90
5802;DHT22;2927;49.366;8.530;2023-03-04T17:48:47;4.70;99.90
5802;DHT22;2927;49.366;8.530;2023-03-04T17:51:13;4.70;99.90
5802;DHT22;2927;49.366;8.530;2023-03-04T17:53:39;4.70;99.90
5802;DHT22;2927;49.366;8.530;2023-03-04T17:56:06;4.70;99.90
5802;DHT22;2927;49.366;8.530;2023-03-04T17:58:34;4.70;99.90
5802;DHT22;2927;49.366;8.530;2023-03-04T18:01:05;4.60;99.90
5802;DHT22;2927;49.366;8.530;2023-03-04T18:03:31;4.70;99.90
5802;DHT22;2927;49.366;8.530;2023-03-04T18:05:57;4.60;99.90
5802;DHT22;2927;49.366;8.530;2023-03-04T18:08:23;4.60;99.90
5802;DHT22;2927;49.366;8.530;2023-03-04T18:10:48;4.60;99.90
5802;DHT22;2927;49.366;8.530;2023-03-04T18:13:14;4.60;99.90